sensor_id;sensor_type;location;lat;lon;timestamp;temperature;humidity
23083;DHT22;11709;52.420;10.538;2022-10-17T00:02:19;14.20;99.90
23083;DHT22;11709;52.420;10.538;2022-10-17T00:06:22;14.20;99.90
23083;DHT22;11709;52.420;10.538;2022-10-17T00:10:24;14.10;99.90
23083;DHT22;11709;52.420;10.538;2022-10-17T00:14:27;14.20;99.90
23083;DHT22;11709;52.420;10.538;2022-10-17T00:18:29;14.20;99.90
23083;DHT22;11709;52.420;10.538;2022-10-17T00:22:32;14.20;99.90
23083;DHT22;11709;52.420;10.538;2022-10-17T00:26:35;14.20;99.90
23083;DHT22;11709;52.420;10.538;2022-10-17T00:30:37;14.00;99.90
23083;DHT22;11709;52.420;10.538;2022-10-17T00:34:40;14.00;99.90
23083;DHT22;11709;52.420;10.538;2022-10-17T00:38:44;14.00;99.90
23083;DHT22;11709;52.420;10.538;2022-10-17T00:42:47;14.00;99.90
23083;DHT22;11709;52.420;10.538;2022-10-17T00:46:52;14.10;99.90
23083;DHT22;11709;52.420;10.538;2022-10-17T00:50:55;14.10;99.90
23083;DHT22;11709;52.420;10.538;2022-10-17T00:55:21;14.00;99.90
23083;DHT22;11709;52.420;10.538;2022-10-17T00:59:21;14.00;99.90
23083;DHT22;11709;52.420;10.538;2022-10-17T01:03:24;13.90;99.90
23083;DHT22;11709;52.420;10.538;2022-10-17T01:07:27;13.90;99.90
23083;DHT22;11709;52.420;10.538;2022-10-17T01:11:34;14.00;99.90
23083;DHT22;11709;52.420;10.538;2022-10-17T01:15:43;14.00;99.90
23083;DHT22;11709;52.420;10.538;2022-10-17T01:28:29;13.90;99.90
23083;DHT22;11709;52.420;10.538;2022-10-17T01:32:37;13.80;99.90
23083;DHT22;11709;52.420;10.538;2022-10-17T01:36:53;13.80;99.90
23083;DHT22;11709;52.420;10.538;2022-10-17T01:40:59;13.80;99.90
23083;DHT22;11709;52.420;10.538;2022-10-17T01:45:02;13.80;99.90
23083;DHT22;11709;52.420;10.538;2022-10-17T01:49:07;13.80;99.90
23083;DHT22;11709;52.420;10.538;2022-10-17T01:53:18;13.70;99.90
23083;DHT22;11709;52.420;10.538;2022-10-17T01:57:33;13.70;99.90
23083;DHT22;11709;52.420;10.538;2022-10-17T02:01:37;13.70;99.90
23083;DHT22;11709;52.420;10.538;2022-10-17T02:05:42;13.60;99.90
23083;DHT22;11709;52.420;10.538;2022-10-17T02:09:45;13.60;99.90
23083;DHT22;11709;52.420;10.538;2022-10-17T02:14:02;13.50;99.90
23083;DHT22;11709;52.420;10.538;2022-10-17T02:22:51;13.40;99.90
23083;DHT22;11709;52.420;10.538;2022-10-17T02:27:10;13.30;99.90
23083;DHT22;11709;52.420;10.538;2022-10-17T02:31:20;13.30;99.90
23083;DHT22;11709;52.420;10.538;2022-10-17T02:35:26;13.20;99.90
23083;DHT22;11709;52.420;10.538;2022-10-17T02:39:29;13.20;99.90
23083;DHT22;11709;52.420;10.538;2022-10-17T02:43:33;13.10;99.90
23083;DHT22;11709;52.420;10.538;2022-10-17T02:48:01;13.00;99.90
23083;DHT22;11709;52.420;10.538;2022-10-17T02:51:51;13.00;99.90
23083;DHT22;11709;52.420;10.538;2022-10-17T02:55:56;12.90;99.90
23083;DHT22;11709;52.420;10.538;2022-10-17T03:00:00;12.90;99.90
23083;DHT22;11709;52.420;10.538;2022-10-17T03:04:07;12.80;99.90
23083;DHT22;11709;52.420;10.538;2022-10-17T03:08:09;12.80;99.90
23083;DHT22;11709;52.420;10.538;2022-10-17T03:12:12;12.70;99.90
23083;DHT22;11709;52.420;10.538;2022-10-17T03:16:14;12.70;99.90
23083;DHT22;11709;52.420;10.538;2022-10-17T03:20:17;12.70;99.90
23083;DHT22;11709;52.420;10.538;2022-10-17T03:24:19;12.70;99.90
23083;DHT22;11709;52.420;10.538;2022-10-17T03:28:22;12.60;99.90
23083;DHT22;11709;52.420;10.538;2022-10-17T03:32:24;12.60;99.90
23083;DHT22;11709;52.420;10.538;2022-10-17T03:36:27;12.50;99.90
23083;DHT22;11709;52.420;10.538;2022-10-17T03:40:30;12.50;99.90
23083;DHT22;11709;52.420;10.538;2022-10-17T03:44:32;12.50;99.90
23083;DHT22;11709;52.420;10.538;2022-10-17T03:48:35;12.40;99.90
23083;DHT22;11709;52.420;10.538;2022-10-17T03:52:37;12.40;99.90
23083;DHT22;11709;52.420;10.538;2022-10-17T03:56:39;12.40;99.90
23083;DHT22;11709;52.420;10.538;2022-10-17T04:00:42;12.40;99.90
23083;DHT22;11709;52.420;10.538;2022-10-17T04:04:44;12.30;99.90
23083;DHT22;11709;52.420;10.538;2022-10-17T04:08:47;12.30;99.90
23083;DHT22;11709;52.420;10.538;2022-10-17T04:12:50;12.30;99.90
23083;DHT22;11709;52.420;10.538;2022-10-17T04:16:53;12.20;99.90
23083;DHT22;11709;52.420;10.538;2022-10-17T04:20:55;12.10;99.90
23083;DHT22;11709;52.420;10.538;2022-10-17T04:24:58;12.00;99.90
23083;DHT22;11709;52.420;10.538;2022-10-17T04:29:00;11.90;99.90
23083;DHT22;11709;52.420;10.538;2022-10-17T04:33:03;11.80;99.90
23083;DHT22;11709;52.420;10.538;2022-10-17T04:37:06;11.80;99.90
23083;DHT22;11709;52.420;10.538;2022-10-17T04:41:11;11.80;99.90
23083;DHT22;11709;52.420;10.538;2022-10-17T04:45:13;11.80;99.90
23083;DHT22;11709;52.420;10.538;2022-10-17T04:49:16;11.80;99.90
23083;DHT22;11709;52.420;10.538;2022-10-17T04:53:18;11.80;99.90
23083;DHT22;11709;52.420;10.538;2022-10-17T04:57:21;11.80;99.90
23083;DHT22;11709;52.420;10.538;2022-10-17T05:01:25;11.80;99.90
23083;DHT22;11709;52.420;10.538;2022-10-17T05:05:27;11.70;99.90
23083;DHT22;11709;52.420;10.538;2022-10-17T05:09:30;11.70;99.90
23083;DHT22;11709;52.420;10.538;2022-10-17T05:13:32;11.60;99.90
23083;DHT22;11709;52.420;10.538;2022-10-17T05:17:35;11.70;99.90
23083;DHT22;11709;52.420;10.538;2022-10-17T05:21:37;11.70;99.90
23083;DHT22;11709;52.420;10.538;2022-10-17T05:25:40;11.70;99.90
23083;DHT22;11709;52.420;10.538;2022-10-17T05:29:42;11.70;99.90
23083;DHT22;11709;52.420;10.538;2022-10-17T05:33:46;11.80;99.90
23083;DHT22;11709;52.420;10.538;2022-10-17T05:37:48;11.80;99.90
23083;DHT22;11709;52.420;10.538;2022-10-17T05:41:51;11.70;99.90
23083;DHT22;11709;52.420;10.538;2022-10-17T05:45:54;11.70;99.90
23083;DHT22;11709;52.420;10.538;2022-10-17T05:49:56;11.70;99.90
23083;DHT22;11709;52.420;10.538;2022-10-17T05:53:59;11.70;99.90
23083;DHT22;11709;52.420;10.538;2022-10-17T05:58:01;11.70;99.90
23083;DHT22;11709;52.420;10.538;2022-10-17T06:02:04;11.70;99.90
23083;DHT22;11709;52.420;10.538;2022-10-17T06:06:09;11.60;99.90
23083;DHT22;11709;52.420;10.538;2022-10-17T06:10:11;11.60;99.90
23083;DHT22;11709;52.420;10.538;2022-10-17T06:14:16;11.70;99.90
23083;DHT22;11709;52.420;10.538;2022-10-17T06:18:18;11.80;99.90
23083;DHT22;11709;52.420;10.538;2022-10-17T06:22:21;11.80;99.90
23083;DHT22;11709;52.420;10.538;2022-10-17T06:26:23;11.80;99.90
23083;DHT22;11709;52.420;10.538;2022-10-17T06:30:26;11.90;99.90
23083;DHT22;11709;52.420;10.538;2022-10-17T06:34:28;12.00;99.90
23083;DHT22;11709;52.420;10.538;2022-10-17T06:38:31;12.20;99.90
23083;DHT22;11709;52.420;10.538;2022-10-17T06:42:34;12.40;99.90
23083;DHT22;11709;52.420;10.538;2022-10-17T06:46:37;12.60;99.90
23083;DHT22;11709;52.420;10.538;2022-10-17T06:50:40;12.80;99.90
23083;DHT22;11709;52.420;10.538;2022-10-17T06:54:43;13.00;99.90
23083;DHT22;11709;52.420;10.538;2022-10-17T06:58:46;13.30;99.90
23083;DHT22;11709;52.420;10.538;2022-10-17T07:02:50;13.60;99.90
23083;DHT22;11709;52.420;10.538;2022-10-17T07:06:53;13.90;99.90
23083;DHT22;11709;52.420;10.538;2022-10-17T07:10:56;14.20;99.90
23083;DHT22;11709;52.420;10.538;2022-10-17T07:14:58;14.50;99.90
23083;DHT22;11709;52.420;10.538;2022-10-17T07:19:01;14.90;99.90
23083;DHT22;11709;52.420;10.538;2022-10-17T07:23:04;15.20;99.90
23083;DHT22;11709;52.420;10.538;2022-10-17T07:27:06;15.50;99.90
23083;DHT22;11709;52.420;10.538;2022-10-17T07:31:16;15.80;99.90
23083;DHT22;11709;52.420;10.538;2022-10-17T07:35:19;16.00;99.90
23083;DHT22;11709;52.420;10.538;2022-10-17T07:39:22;16.10;99.90
23083;DHT22;11709;52.420;10.538;2022-10-17T07:43:25;16.30;99.90
23083;DHT22;11709;52.420;10.538;2022-10-17T07:47:28;16.30;99.90
23083;DHT22;11709;52.420;10.538;2022-10-17T07:51:31;16.40;99.90
23083;DHT22;11709;52.420;10.538;2022-10-17T07:55:36;16.50;99.90
23083;DHT22;11709;52.420;10.538;2022-10-17T07:59:38;16.60;99.90
23083;DHT22;11709;52.420;10.538;2022-10-17T08:03:43;17.00;99.90
23083;DHT22;11709;52.420;10.538;2022-10-17T08:07:46;17.20;99.90
23083;DHT22;11709;52.420;10.538;2022-10-17T08:11:48;17.50;99.90
23083;DHT22;11709;52.420;10.538;2022-10-17T08:15:51;17.80;99.90
23083;DHT22;11709;52.420;10.538;2022-10-17T08:19:53;18.00;99.90
23083;DHT22;11709;52.420;10.538;2022-10-17T08:23:56;18.30;99.90
23083;DHT22;11709;52.420;10.538;2022-10-17T08:27:59;18.40;99.90
23083;DHT22;11709;52.420;10.538;2022-10-17T08:32:01;18.40;99.90
23083;DHT22;11709;52.420;10.538;2022-10-17T08:36:04;18.40;99.90
23083;DHT22;11709;52.420;10.538;2022-10-17T08:40:12;18.40;99.90
23083;DHT22;11709;52.420;10.538;2022-10-17T08:48:42;18.60;99.90
23083;DHT22;11709;52.420;10.538;2022-10-17T08:52:57;18.70;99.90
23083;DHT22;11709;52.420;10.538;2022-10-17T08:57:01;18.80;99.90
23083;DHT22;11709;52.420;10.538;2022-10-17T09:01:33;19.00;99.90
23083;DHT22;11709;52.420;10.538;2022-10-17T09:05:59;19.10;99.90
23083;DHT22;11709;52.420;10.538;2022-10-17T09:14:26;19.40;99.90
23083;DHT22;11709;52.420;10.538;2022-10-17T09:18:28;19.80;99.90
23083;DHT22;11709;52.420;10.538;2022-10-17T09:22:36;20.00;99.90
23083;DHT22;11709;52.420;10.538;2022-10-17T09:26:38;20.20;99.90
23083;DHT22;11709;52.420;10.538;2022-10-17T09:30:43;20.30;99.90
23083;DHT22;11709;52.420;10.538;2022-10-17T09:34:47;20.60;99.90
23083;DHT22;11709;52.420;10.538;2022-10-17T09:38:52;20.60;99.90
23083;DHT22;11709;52.420;10.538;2022-10-17T09:42:55;20.70;99.90
23083;DHT22;11709;52.420;10.538;2022-10-17T09:51:14;21.00;99.90
23083;DHT22;11709;52.420;10.538;2022-10-17T09:59:35;21.10;99.90
23083;DHT22;11709;52.420;10.538;2022-10-17T10:03:34;21.20;99.90
23083;DHT22;11709;52.420;10.538;2022-10-17T10:07:38;21.20;99.90
23083;DHT22;11709;52.420;10.538;2022-10-17T10:11:46;21.30;99.90
23083;DHT22;11709;52.420;10.538;2022-10-17T10:15:50;21.40;99.90
23083;DHT22;11709;52.420;10.538;2022-10-17T10:19:52;21.60;99.90
23083;DHT22;11709;52.420;10.538;2022-10-17T10:24:10;21.90;99.90
23083;DHT22;11709;52.420;10.538;2022-10-17T10:28:10;22.10;99.90
23083;DHT22;11709;52.420;10.538;2022-10-17T10:36:50;22.60;99.90
23083;DHT22;11709;52.420;10.538;2022-10-17T10:40:51;22.50;99.90
23083;DHT22;11709;52.420;10.538;2022-10-17T10:45:01;22.30;99.90
23083;DHT22;11709;52.420;10.538;2022-10-17T10:49:01;22.10;99.90
23083;DHT22;11709;52.420;10.538;2022-10-17T10:57:38;22.30;99.90
23083;DHT22;11709;52.420;10.538;2022-10-17T11:02:01;22.40;99.90
23083;DHT22;11709;52.420;10.538;2022-10-17T11:06:14;22.50;99.90
23083;DHT22;11709;52.420;10.538;2022-10-17T11:10:22;22.60;99.90
23083;DHT22;11709;52.420;10.538;2022-10-17T11:14:44;23.00;99.90
23083;DHT22;11709;52.420;10.538;2022-10-17T11:18:52;23.10;99.90
23083;DHT22;11709;52.420;10.538;2022-10-17T11:23:36;22.90;99.90
23083;DHT22;11709;52.420;10.538;2022-10-17T11:27:04;22.90;99.90
23083;DHT22;11709;52.420;10.538;2022-10-17T11:31:12;22.80;99.90
23083;DHT22;11709;52.420;10.538;2022-10-17T11:35:26;22.80;99.90
23083;DHT22;11709;52.420;10.538;2022-10-17T11:39:42;22.70;99.90
23083;DHT22;11709;52.420;10.538;2022-10-17T11:43:50;22.70;99.90
23083;DHT22;11709;52.420;10.538;2022-10-17T11:48:09;22.70;99.90
23083;DHT22;11709;52.420;10.538;2022-10-17T11:52:40;22.70;99.90
23083;DHT22;11709;52.420;10.538;2022-10-17T12:05:24;22.90;99.90
23083;DHT22;11709;52.420;10.538;2022-10-17T12:09:36;22.90;99.90
23083;DHT22;11709;52.420;10.538;2022-10-17T12:17:53;23.20;99.90
23083;DHT22;11709;52.420;10.538;2022-10-17T12:22:02;23.70;99.90
23083;DHT22;11709;52.420;10.538;2022-10-17T12:26:06;24.20;99.90
23083;DHT22;11709;52.420;10.538;2022-10-17T12:30:14;25.00;99.90
23083;DHT22;11709;52.420;10.538;2022-10-17T12:34:19;25.50;99.90
23083;DHT22;11709;52.420;10.538;2022-10-17T12:38:25;25.90;99.90
23083;DHT22;11709;52.420;10.538;2022-10-17T12:42:32;25.80;99.90
23083;DHT22;11709;52.420;10.538;2022-10-17T12:46:54;25.50;99.90
23083;DHT22;11709;52.420;10.538;2022-10-17T12:51:14;25.20;99.90
23083;DHT22;11709;52.420;10.538;2022-10-17T12:55:22;24.70;99.90
23083;DHT22;11709;52.420;10.538;2022-10-17T12:59:27;24.50;99.90
23083;DHT22;11709;52.420;10.538;2022-10-17T13:03:39;24.30;99.90
23083;DHT22;11709;52.420;10.538;2022-10-17T13:07:41;24.30;99.90
23083;DHT22;11709;52.420;10.538;2022-10-17T13:11:44;24.20;99.90
23083;DHT22;11709;52.420;10.538;2022-10-17T13:15:49;24.00;99.90
23083;DHT22;11709;52.420;10.538;2022-10-17T13:19:52;23.80;99.90
23083;DHT22;11709;52.420;10.538;2022-10-17T13:23:55;23.70;99.90
23083;DHT22;11709;52.420;10.538;2022-10-17T13:28:06;23.70;99.90
23083;DHT22;11709;52.420;10.538;2022-10-17T13:32:09;23.60;99.90
23083;DHT22;11709;52.420;10.538;2022-10-17T13:36:14;23.60;99.90
23083;DHT22;11709;52.420;10.538;2022-10-17T13:40:22;23.50;99.90
23083;DHT22;11709;52.420;10.538;2022-10-17T13:44:27;23.50;99.90
23083;DHT22;11709;52.420;10.538;2022-10-17T13:48:34;23.40;99.90
23083;DHT22;11709;52.420;10.538;2022-10-17T13:52:36;23.40;99.90
23083;DHT22;11709;52.420;10.538;2022-10-17T13:56:39;23.30;99.90
23083;DHT22;11709;52.420;10.538;2022-10-17T14:00:42;23.20;99.90
23083;DHT22;11709;52.420;10.538;2022-10-17T14:04:45;23.00;99.90
23083;DHT22;11709;52.420;10.538;2022-10-17T14:08:59;22.90;99.90
23083;DHT22;11709;52.420;10.538;2022-10-17T14:13:03;22.90;99.90
23083;DHT22;11709;52.420;10.538;2022-10-17T14:17:23;22.80;99.90
23083;DHT22;11709;52.420;10.538;2022-10-17T14:21:26;22.80;99.90
23083;DHT22;11709;52.420;10.538;2022-10-17T14:25:37;22.70;99.90
23083;DHT22;11709;52.420;10.538;2022-10-17T14:29:50;22.70;99.90
23083;DHT22;11709;52.420;10.538;2022-10-17T14:33:53;22.50;99.90
23083;DHT22;11709;52.420;10.538;2022-10-17T14:38:01;22.50;99.90
23083;DHT22;11709;52.420;10.538;2022-10-17T14:42:04;22.50;99.90
23083;DHT22;11709;52.420;10.538;2022-10-17T14:46:14;22.40;99.90
23083;DHT22;11709;52.420;10.538;2022-10-17T14:54:26;22.30;99.90
23083;DHT22;11709;52.420;10.538;2022-10-17T14:58:32;22.20;99.90
23083;DHT22;11709;52.420;10.538;2022-10-17T15:02:34;22.20;99.90
23083;DHT22;11709;52.420;10.538;2022-10-17T15:06:37;22.10;99.90
23083;DHT22;11709;52.420;10.538;2022-10-17T15:10:41;22.10;99.90
23083;DHT22;11709;52.420;10.538;2022-10-17T15:14:45;22.10;99.90
23083;DHT22;11709;52.420;10.538;2022-10-17T15:18:49;22.10;99.90
23083;DHT22;11709;52.420;10.538;2022-10-17T15:22:53;22.00;99.90
23083;DHT22;11709;52.420;10.538;2022-10-17T15:26:56;22.00;99.90
23083;DHT22;11709;52.420;10.538;2022-10-17T15:30:58;21.90;99.90
23083;DHT22;11709;52.420;10.538;2022-10-17T15:35:01;21.90;99.90
23083;DHT22;11709;52.420;10.538;2022-10-17T15:39:03;21.90;99.90
23083;DHT22;11709;52.420;10.538;2022-10-17T15:43:07;21.80;99.90
23083;DHT22;11709;52.420;10.538;2022-10-17T15:51:27;21.70;99.90
23083;DHT22;11709;52.420;10.538;2022-10-17T15:55:49;21.60;99.90
23083;DHT22;11709;52.420;10.538;2022-10-17T15:59:53;21.50;99.90
23083;DHT22;11709;52.420;10.538;2022-10-17T16:03:56;21.50;99.90
23083;DHT22;11709;52.420;10.538;2022-10-17T16:07:59;21.50;99.90
23083;DHT22;11709;52.420;10.538;2022-10-17T16:12:04;21.40;99.90
23083;DHT22;11709;52.420;10.538;2022-10-17T16:16:09;21.40;99.90
23083;DHT22;11709;52.420;10.538;2022-10-17T16:20:12;21.30;99.90
23083;DHT22;11709;52.420;10.538;2022-10-17T16:24:14;21.30;99.90
23083;DHT22;11709;52.420;10.538;2022-10-17T16:28:18;21.30;99.90
23083;DHT22;11709;52.420;10.538;2022-10-17T16:32:20;21.20;99.90
23083;DHT22;11709;52.420;10.538;2022-10-17T16:36:23;21.20;99.90
23083;DHT22;11709;52.420;10.538;2022-10-17T16:40:25;21.10;99.90
23083;DHT22;11709;52.420;10.538;2022-10-17T16:44:28;21.10;99.90
23083;DHT22;11709;52.420;10.538;2022-10-17T16:48:30;21.10;99.90
23083;DHT22;11709;52.420;10.538;2022-10-17T16:52:33;21.10;99.90
23083;DHT22;11709;52.420;10.538;2022-10-17T16:56:35;21.10;99.90
23083;DHT22;11709;52.420;10.538;2022-10-17T17:00:38;21.00;99.90
23083;DHT22;11709;52.420;10.538;2022-10-17T17:04:41;21.00;99.90
23083;DHT22;11709;52.420;10.538;2022-10-17T17:08:43;21.00;99.90
23083;DHT22;11709;52.420;10.538;2022-10-17T17:12:46;21.00;99.90
23083;DHT22;11709;52.420;10.538;2022-10-17T17:16:49;20.90;99.90
23083;DHT22;11709;52.420;10.538;2022-10-17T17:20:56;21.00;99.90
23083;DHT22;11709;52.420;10.538;2022-10-17T17:24:55;20.90;99.90
23083;DHT22;11709;52.420;10.538;2022-10-17T17:28:59;20.90;99.90
23083;DHT22;11709;52.420;10.538;2022-10-17T17:33:01;20.90;99.90
23083;DHT22;11709;52.420;10.538;2022-10-17T17:37:04;20.80;99.90
23083;DHT22;11709;52.420;10.538;2022-10-17T17:41:06;20.80;99.90
23083;DHT22;11709;52.420;10.538;2022-10-17T17:45:11;20.70;99.90
23083;DHT22;11709;52.420;10.538;2022-10-17T17:49:13;20.70;99.90
23083;DHT22;11709;52.420;10.538;2022-10-17T17:53:16;20.60;99.90
23083;DHT22;11709;52.420;10.538;2022-10-17T17:57:19;20.60;99.90
23083;DHT22;11709;52.420;10.538;2022-10-17T18:01:23;20.60;99.90
23083;DHT22;11709;52.420;10.538;2022-10-17T18:05:29;20.50;99.90
23083;DHT22;11709;52.420;10.538;2022-10-17T18:09:32;20.40;99.90
23083;DHT22;11709;52.420;10.538;2022-10-17T18:13:34;20.40;99.90
23083;DHT22;11709;52.420;10.538;2022-10-17T18:17:37;20.40;99.90
23083;DHT22;11709;52.420;10.538;2022-10-17T18:21:39;20.30;99.90
23083;DHT22;11709;52.420;10.538;2022-10-17T18:25:54;20.30;99.90
23083;DHT22;11709;52.420;10.538;2022-10-17T18:29:57;20.20;99.90
23083;DHT22;11709;52.420;10.538;2022-10-17T18:33:59;20.10;99.90
23083;DHT22;11709;52.420;10.538;2022-10-17T18:38:02;20.10;99.90
23083;DHT22;11709;52.420;10.538;2022-10-17T18:42:05;20.10;99.90
23083;DHT22;11709;52.420;10.538;2022-10-17T18:46:10;20.00;99.90
23083;DHT22;11709;52.420;10.538;2022-10-17T18:50:15;19.90;99.90
23083;DHT22;11709;52.420;10.538;2022-10-17T18:54:19;19.80;99.90
23083;DHT22;11709;52.420;10.538;2022-10-17T18:58:22;19.70;99.90
23083;DHT22;11709;52.420;10.538;2022-10-17T19:02:25;19.60;99.90
23083;DHT22;11709;52.420;10.538;2022-10-17T19:06:30;19.50;99.90
23083;DHT22;11709;52.420;10.538;2022-10-17T19:10:33;19.40;99.90
23083;DHT22;11709;52.420;10.538;2022-10-17T19:14:37;19.30;99.90
23083;DHT22;11709;52.420;10.538;2022-10-17T19:18:40;19.30;99.90
23083;DHT22;11709;52.420;10.538;2022-10-17T19:22:42;19.20;99.90
23083;DHT22;11709;52.420;10.538;2022-10-17T19:26:46;19.20;99.90
23083;DHT22;11709;52.420;10.538;2022-10-17T19:30:50;19.20;99.90
23083;DHT22;11709;52.420;10.538;2022-10-17T19:34:53;19.10;99.90
23083;DHT22;11709;52.420;10.538;2022-10-17T19:38:57;19.10;99.90
23083;DHT22;11709;52.420;10.538;2022-10-17T19:42:59;19.00;99.90
23083;DHT22;11709;52.420;10.538;2022-10-17T19:47:02;19.00;99.90
23083;DHT22;11709;52.420;10.538;2022-10-17T19:51:06;19.00;99.90
23083;DHT22;11709;52.420;10.538;2022-10-17T19:55:08;18.90;99.90
23083;DHT22;11709;52.420;10.538;2022-10-17T19:59:13;18.80;99.90
23083;DHT22;11709;52.420;10.538;2022-10-17T20:03:16;18.80;99.90
23083;DHT22;11709;52.420;10.538;2022-10-17T20:07:18;18.70;99.90
23083;DHT22;11709;52.420;10.538;2022-10-17T20:11:23;18.60;99.90
23083;DHT22;11709;52.420;10.538;2022-10-17T20:15:26;18.60;99.90
23083;DHT22;11709;52.420;10.538;2022-10-17T20:19:29;18.60;99.90
23083;DHT22;11709;52.420;10.538;2022-10-17T20:23:31;18.50;99.90
23083;DHT22;11709;52.420;10.538;2022-10-17T20:27:34;18.50;99.90
23083;DHT22;11709;52.420;10.538;2022-10-17T20:31:37;18.50;99.90
23083;DHT22;11709;52.420;10.538;2022-10-17T20:35:41;18.40;99.90
23083;DHT22;11709;52.420;10.538;2022-10-17T20:39:44;18.40;99.90
23083;DHT22;11709;52.420;10.538;2022-10-17T20:43:49;18.30;99.90
23083;DHT22;11709;52.420;10.538;2022-10-17T20:47:51;18.20;99.90
23083;DHT22;11709;52.420;10.538;2022-10-17T20:51:54;18.10;99.90
23083;DHT22;11709;52.420;10.538;2022-10-17T20:56:01;18.10;99.90
23083;DHT22;11709;52.420;10.538;2022-10-17T21:00:04;18.00;99.90
23083;DHT22;11709;52.420;10.538;2022-10-17T21:04:08;18.00;99.90
23083;DHT22;11709;52.420;10.538;2022-10-17T21:08:10;18.00;99.90
23083;DHT22;11709;52.420;10.538;2022-10-17T21:12:13;17.90;99.90
23083;DHT22;11709;52.420;10.538;2022-10-17T21:16:17;17.90;99.90
23083;DHT22;11709;52.420;10.538;2022-10-17T21:20:20;17.90;99.90
23083;DHT22;11709;52.420;10.538;2022-10-17T21:24:23;17.80;99.90
23083;DHT22;11709;52.420;10.538;2022-10-17T21:28:25;17.80;99.90
23083;DHT22;11709;52.420;10.538;2022-10-17T21:32:28;17.80;99.90
23083;DHT22;11709;52.420;10.538;2022-10-17T21:36:30;17.80;99.90
23083;DHT22;11709;52.420;10.538;2022-10-17T21:40:32;17.80;99.90
23083;DHT22;11709;52.420;10.538;2022-10-17T21:44:35;17.80;99.90
23083;DHT22;11709;52.420;10.538;2022-10-17T21:48:38;17.80;99.90
23083;DHT22;11709;52.420;10.538;2022-10-17T21:52:40;17.70;99.90
23083;DHT22;11709;52.420;10.538;2022-10-17T21:56:43;17.70;99.90
23083;DHT22;11709;52.420;10.538;2022-10-17T22:00:46;17.60;99.90
23083;DHT22;11709;52.420;10.538;2022-10-17T22:04:48;17.60;99.90
23083;DHT22;11709;52.420;10.538;2022-10-17T22:08:51;17.60;99.90
23083;DHT22;11709;52.420;10.538;2022-10-17T22:12:54;17.60;99.90
23083;DHT22;11709;52.420;10.538;2022-10-17T22:16:56;17.50;99.90
23083;DHT22;11709;52.420;10.538;2022-10-17T22:21:03;17.50;99.90
23083;DHT22;11709;52.420;10.538;2022-10-17T22:25:06;17.50;99.90
23083;DHT22;11709;52.420;10.538;2022-10-17T22:29:09;17.40;99.90
23083;DHT22;11709;52.420;10.538;2022-10-17T22:33:12;17.40;99.90
23083;DHT22;11709;52.420;10.538;2022-10-17T22:37:14;17.40;99.90
23083;DHT22;11709;52.420;10.538;2022-10-17T22:41:17;17.40;99.90
23083;DHT22;11709;52.420;10.538;2022-10-17T22:45:19;17.30;99.90
23083;DHT22;11709;52.420;10.538;2022-10-17T22:49:22;17.30;99.90
23083;DHT22;11709;52.420;10.538;2022-10-17T22:53:25;17.30;99.90
23083;DHT22;11709;52.420;10.538;2022-10-17T22:57:27;17.20;99.90
23083;DHT22;11709;52.420;10.538;2022-10-17T23:01:30;17.20;99.90
23083;DHT22;11709;52.420;10.538;2022-10-17T23:05:32;17.20;99.90
23083;DHT22;11709;52.420;10.538;2022-10-17T23:09:35;17.10;99.90
23083;DHT22;11709;52.420;10.538;2022-10-17T23:13:38;17.20;99.90
23083;DHT22;11709;52.420;10.538;2022-10-17T23:17:41;17.10;99.90
23083;DHT22;11709;52.420;10.538;2022-10-17T23:21:43;17.10;99.90
23083;DHT22;11709;52.420;10.538;2022-10-17T23:25:46;17.00;99.90
23083;DHT22;11709;52.420;10.538;2022-10-17T23:29:49;17.00;99.90
23083;DHT22;11709;52.420;10.538;2022-10-17T23:33:52;17.00;99.90
23083;DHT22;11709;52.420;10.538;2022-10-17T23:37:54;16.90;99.90
23083;DHT22;11709;52.420;10.538;2022-10-17T23:41:57;16.90;99.90
23083;DHT22;11709;52.420;10.538;2022-10-17T23:46:01;16.90;99.90
23083;DHT22;11709;52.420;10.538;2022-10-17T23:50:04;16.90;99.90
23083;DHT22;11709;52.420;10.538;2022-10-17T23:54:07;16.80;99.90
23083;DHT22;11709;52.420;10.538;2022-10-17T23:58:09;16.90;99.90
